createdAt,value
2019-02-22T00:00:46.308Z,98521.37
2019-02-22T00:03:55.729Z,98523.36
2019-02-22T00:07:02.534Z,98520.35
2019-02-22T00:10:09.982Z,98523.14
2019-02-22T00:13:16.631Z,98522.44
2019-02-22T00:16:23.297Z,98526.15
2019-02-22T00:19:30.218Z,98528.02
2019-02-22T00:22:37.505Z,98533.42
2019-02-22T00:25:44.826Z,98527.41
2019-02-22T00:28:52.185Z,98532.27
2019-02-22T00:31:59.269Z,98533.36
2019-02-22T00:35:06.151Z,98535.53
2019-02-22T00:38:13.171Z,98549.23
2019-02-22T00:41:20.359Z,98550.16
2019-02-22T00:44:26.841Z,98552.56
2019-02-22T00:47:33.996Z,98550.08
2019-02-22T00:50:40.906Z,98545.92
2019-02-22T00:53:47.408Z,98539.77
2019-02-22T00:56:54.119Z,98546.36
2019-02-22T01:00:01.330Z,98543.98
2019-02-22T01:03:11.869Z,98547.15
2019-02-22T01:06:19.072Z,98550.66
2019-02-22T01:09:25.628Z,98552.03
2019-02-22T01:12:32.422Z,98556.22
2019-02-22T01:15:39.180Z,98552.42
2019-02-22T01:18:45.582Z,98555.05
2019-02-22T01:21:52.139Z,98553.67
2019-02-22T01:24:58.669Z,98548.46
2019-02-22T01:28:05.302Z,98552.56
2019-02-22T01:31:11.624Z,98553.30
2019-02-22T01:34:17.841Z,98548.62
2019-02-22T01:37:24.504Z,98551.56
2019-02-22T01:40:42.705Z,98559.48
2019-02-22T01:43:39.203Z,98563.02
2019-02-22T01:46:46.111Z,98556.06
2019-02-22T01:49:52.522Z,98558.80
2019-02-22T01:52:59.026Z,98563.27
2019-02-22T01:56:06.610Z,98560.11
2019-02-22T01:59:13.082Z,98567.45
2019-02-22T02:02:19.782Z,98566.38
2019-02-22T02:05:26.152Z,98567.83
2019-02-22T02:08:32.738Z,98573.80
2019-02-22T02:11:39.461Z,98573.16
2019-02-22T02:14:45.898Z,98580.16
2019-02-22T02:17:52.324Z,98586.13
2019-02-22T02:20:58.897Z,98595.57
2019-02-22T02:24:05.895Z,98593.19
2019-02-22T02:27:12.470Z,98596.52
2019-02-22T02:30:19.747Z,98599.84
2019-02-22T02:33:26.348Z,98603.89
2019-02-22T02:36:33.262Z,98595.20
2019-02-22T02:39:41.300Z,98598.68
2019-02-22T02:42:47.906Z,98602.31
2019-02-22T02:45:54.561Z,98600.24
2019-02-22T02:49:01.462Z,98600.72
2019-02-22T02:52:09.249Z,98593.97
2019-02-22T02:55:29.690Z,98603.10
2019-02-22T02:58:36.719Z,98610.25
2019-02-22T03:01:43.519Z,98603.73
2019-02-22T03:04:50.729Z,98610.07
2019-02-22T03:07:58.019Z,98607.44
2019-02-22T03:11:04.213Z,98614.05
2019-02-22T03:14:10.915Z,98615.96
2019-02-22T03:17:17.650Z,98622.48
2019-02-22T03:20:24.283Z,98612.31
2019-02-22T03:23:30.649Z,98610.16
2019-02-22T03:26:38.800Z,98620.61
2019-02-22T03:29:45.375Z,98618.82
2019-02-22T03:32:51.833Z,98621.55
2019-02-22T03:35:58.334Z,98633.11
2019-02-22T03:39:07.002Z,98629.00
2019-02-22T03:42:14.449Z,98634.81
2019-02-22T03:45:20.779Z,98624.20
2019-02-22T03:48:27.342Z,98639.78
2019-02-22T03:51:37.033Z,98645.05
2019-02-22T03:54:43.342Z,98640.14
2019-02-22T03:57:50.092Z,98649.22
2019-02-22T04:00:56.683Z,98656.84
2019-02-22T04:04:02.959Z,98658.53
2019-02-22T04:07:09.534Z,98654.42
2019-02-22T04:10:16.408Z,98667.81
2019-02-22T04:13:23.373Z,98663.56
2019-02-22T04:16:30.092Z,98674.34
2019-02-22T04:19:36.842Z,98668.45
2019-02-22T04:22:44.567Z,98672.56
2019-02-22T04:25:51.317Z,98673.88
2019-02-22T04:28:57.739Z,98671.86
2019-02-22T04:32:04.366Z,98664.82
2019-02-22T04:35:11.048Z,98674.97
2019-02-22T04:38:18.155Z,98674.41
2019-02-22T04:41:25.760Z,98686.80
2019-02-22T04:44:32.522Z,98696.52
2019-02-22T04:47:38.854Z,98701.32
2019-02-22T04:50:45.312Z,98702.47
2019-02-22T04:53:51.795Z,98712.69
2019-02-22T04:56:58.638Z,98715.47
2019-02-22T05:00:05.074Z,98725.33
2019-02-22T05:03:11.731Z,98732.06
2019-02-22T05:06:19.338Z,98732.36
2019-02-22T05:09:25.623Z,98733.62
2019-02-22T05:12:32.154Z,98736.25
2019-02-22T05:15:38.907Z,98730.66
2019-02-22T05:18:45.260Z,98727.81
2019-02-22T05:21:52.261Z,98742.19
2019-02-22T05:24:59.251Z,98749.16
2019-02-22T05:28:06.063Z,98745.73
2019-02-22T05:31:12.309Z,98741.48
2019-02-22T05:34:19.057Z,98741.55
2019-02-22T05:37:25.495Z,98747.75
2019-02-22T05:40:32.085Z,98754.19
2019-02-22T05:43:38.757Z,98756.46
2019-02-22T05:46:45.248Z,98745.77
2019-02-22T05:49:51.573Z,98753.25
2019-02-22T05:52:58.249Z,98753.95
2019-02-22T05:56:05.054Z,98758.67
2019-02-22T05:59:11.389Z,98758.98
2019-02-22T06:02:17.987Z,98762.84
2019-02-22T06:05:24.787Z,98760.22
2019-02-22T06:08:31.300Z,98772.49
2019-02-22T06:11:38.082Z,98778.59
2019-02-22T06:14:44.767Z,98776.20
2019-02-22T06:17:51.447Z,98776.97
2019-02-22T06:20:58.179Z,98780.53
2019-02-22T06:24:04.437Z,98786.03
2019-02-22T06:27:11.526Z,98798.34
2019-02-22T06:30:18.478Z,98793.73
2019-02-22T06:33:25.152Z,98805.59
2019-02-22T06:36:32.081Z,98813.30
2019-02-22T06:39:38.960Z,98818.56
2019-02-22T06:42:46.272Z,98824.48
2019-02-22T06:45:53.106Z,98837.70
2019-02-22T06:48:59.596Z,98836.53
2019-02-22T06:52:06.110Z,98845.20
2019-02-22T06:55:12.744Z,98847.20
2019-02-22T06:58:19.289Z,98851.67
2019-02-22T07:01:26.037Z,98858.23
2019-02-22T07:04:34.635Z,98853.56
2019-02-22T07:07:41.706Z,98863.73
2019-02-22T07:11:10.620Z,98872.85
2019-02-22T07:14:17.261Z,98872.25
2019-02-22T07:17:24.098Z,98876.47
2019-02-22T07:20:31.981Z,98887.89
2019-02-22T07:23:38.523Z,98894.30
2019-02-22T07:26:45.009Z,98897.10
2019-02-22T07:29:51.592Z,98904.79
2019-02-22T07:32:58.653Z,98906.70
2019-02-22T07:36:05.367Z,98911.29
2019-02-22T07:39:12.019Z,98917.83
2019-02-22T07:42:18.762Z,98920.22
2019-02-22T07:45:25.330Z,98925.98
2019-02-22T07:48:31.826Z,98929.66
2019-02-22T07:51:39.521Z,98942.58
2019-02-22T07:54:46.250Z,98941.38
2019-02-22T07:57:53.173Z,98949.02
2019-02-22T08:01:00.473Z,98954.28
2019-02-22T08:04:07.113Z,98950.72
2019-02-22T08:07:13.764Z,98963.11
2019-02-22T08:10:20.953Z,98970.28
2019-02-22T08:13:27.636Z,98968.78
2019-02-22T08:16:34.732Z,98976.14
2019-02-22T08:19:41.301Z,98975.26
2019-02-22T08:22:48.547Z,98988.69
2019-02-22T08:25:55.449Z,98992.51
2019-02-22T08:29:05.725Z,98995.91
2019-02-22T08:32:12.468Z,99000.51
2019-02-22T08:35:19.312Z,99005.52
2019-02-22T08:38:26.048Z,99009.34
2019-02-22T08:41:33.479Z,99024.87
2019-02-22T08:44:40.292Z,99027.89
2019-02-22T08:47:47.241Z,99030.77
2019-02-22T08:50:53.627Z,99038.91
2019-02-22T08:54:00.159Z,99037.81
2019-02-22T08:57:07.125Z,99046.22
2019-02-22T09:00:13.759Z,99042.47
2019-02-22T09:03:21.454Z,99053.24
2019-02-22T09:06:28.683Z,99056.87
2019-02-22T09:09:35.490Z,99058.88
2019-02-22T09:12:43.169Z,99058.88
2019-02-22T09:15:49.843Z,99067.58
2019-02-22T09:18:56.604Z,99068.20
2019-02-22T09:22:02.982Z,99074.06
2019-02-22T09:25:09.673Z,99077.03
2019-02-22T09:28:16.853Z,99078.16
2019-02-22T09:31:24.295Z,99087.91
2019-02-22T09:34:31.119Z,99088.70
2019-02-22T09:37:38.051Z,99088.00
2019-02-22T09:40:44.687Z,99095.75
2019-02-22T09:43:55.059Z,99097.34
2019-02-22T09:46:59.862Z,99098.22
2019-02-22T09:50:07.863Z,99102.31
2019-02-22T09:53:14.583Z,99101.27
2019-02-22T09:56:21.384Z,99104.93
2019-02-22T09:59:29.364Z,99110.51
2019-02-22T10:02:36.026Z,99109.63
2019-02-22T10:05:42.490Z,99110.85
2019-02-22T10:08:49.184Z,99111.92
2019-02-22T10:11:55.900Z,99117.73
2019-02-22T10:15:03.537Z,99123.47
2019-02-22T10:18:10.232Z,99120.64
2019-02-22T10:21:17.553Z,99130.63
2019-02-22T10:24:24.105Z,99137.89
2019-02-22T10:27:30.479Z,99138.88
2019-02-22T10:30:36.971Z,99147.44
2019-02-22T10:33:43.680Z,99153.36
2019-02-22T10:36:50.521Z,99153.61
2019-02-22T10:39:58.081Z,99163.13
2019-02-22T10:43:04.660Z,99165.34
2019-02-22T10:46:11.385Z,99174.79
2019-02-22T10:49:18.035Z,99183.64
2019-02-22T10:52:24.562Z,99191.45
2019-02-22T10:55:33.440Z,99201.23
2019-02-22T10:58:41.179Z,99197.05
2019-02-22T11:01:48.119Z,99204.05
2019-02-22T11:04:54.883Z,99198.24
2019-02-22T11:08:01.844Z,99208.73
2019-02-22T11:11:10.171Z,99201.61
2019-02-22T11:14:28.409Z,99204.95
2019-02-22T11:17:26.657Z,99210.29
2019-02-22T11:20:33.409Z,99207.00
2019-02-22T11:23:40.024Z,99211.83
2019-02-22T11:26:46.713Z,99212.33
2019-02-22T11:29:53.718Z,99216.30
2019-02-22T11:33:00.764Z,99213.58
2019-02-22T11:36:07.428Z,99212.56
2019-02-22T11:39:14.163Z,99213.19
2019-02-22T11:42:21.193Z,99214.42
2019-02-22T11:45:28.101Z,99214.81
2019-02-22T11:48:34.603Z,99222.02
2019-02-22T11:51:41.528Z,99221.01
2019-02-22T11:54:48.333Z,99226.05
2019-02-22T11:57:55.820Z,99217.73
2019-02-22T12:01:02.513Z,99235.96
2019-02-22T12:04:09.492Z,99233.72
2019-02-22T12:07:17.390Z,99233.93
2019-02-22T12:10:25.586Z,99234.19
2019-02-22T12:13:33.118Z,99240.66
2019-02-22T12:16:39.770Z,99250.68
2019-02-22T12:19:46.642Z,99250.37
2019-02-22T12:22:53.651Z,99249.66
2019-02-22T12:26:00.558Z,99250.30
2019-02-22T12:29:07.050Z,99249.88
2019-02-22T12:32:14.084Z,99257.43
2019-02-22T12:35:21.200Z,99251.80
2019-02-22T12:38:28.421Z,99270.69
2019-02-22T12:41:35.846Z,99271.54
2019-02-22T12:44:42.444Z,99277.98
2019-02-22T12:47:49.311Z,99283.49
2019-02-22T12:50:57.008Z,99293.09
2019-02-22T12:54:03.922Z,99296.43
2019-02-22T12:57:10.429Z,99308.98
2019-02-22T13:00:17.540Z,99309.72
2019-02-22T13:03:23.963Z,99314.30
2019-02-22T13:06:30.669Z,99317.75
2019-02-22T13:09:37.407Z,99319.50
2019-02-22T13:12:44.856Z,99327.02
2019-02-22T13:15:52.594Z,99333.20
2019-02-22T13:19:00.042Z,99349.73
2019-02-22T13:22:06.760Z,99353.48
2019-02-22T13:25:13.363Z,99346.25
2019-02-22T13:28:19.922Z,99354.38
2019-02-22T13:31:30.095Z,99356.67
2019-02-22T13:34:35.569Z,99362.84
2019-02-22T13:37:42.290Z,99370.64
2019-02-22T13:40:49.737Z,99378.30
2019-02-22T13:43:56.452Z,99376.77
2019-02-22T13:47:03.370Z,99387.89
2019-02-22T13:50:12.364Z,99384.78
2019-02-22T13:53:19.209Z,99384.94
2019-02-22T13:56:29.750Z,99389.05
2019-02-22T13:59:34.615Z,99391.66
2019-02-22T14:02:41.313Z,99398.28
2019-02-22T14:05:48.124Z,99405.39
2019-02-22T14:08:54.829Z,99412.38
2019-02-22T14:12:01.920Z,99415.63
2019-02-22T14:15:08.690Z,99415.16
2019-02-22T14:18:15.589Z,99423.69
2019-02-22T14:21:25.029Z,99427.36
2019-02-22T14:24:31.611Z,99435.31
2019-02-22T14:27:39.544Z,99450.34
2019-02-22T14:30:46.135Z,99439.26
2019-02-22T14:33:52.477Z,99441.00
2019-02-22T14:36:59.916Z,99446.27
2019-02-22T14:40:07.987Z,99450.63
2019-02-22T14:43:16.782Z,99443.80
2019-02-22T14:46:25.839Z,99455.48
2019-02-22T14:49:31.430Z,99458.80
2019-02-22T14:52:39.948Z,99466.20
2019-02-22T14:55:48.443Z,99461.34
2019-02-22T14:58:55.345Z,99461.30
2019-02-22T15:02:03.744Z,99458.67
2019-02-22T15:05:10.723Z,99459.11
2019-02-22T15:08:17.302Z,99455.98
2019-02-22T15:11:24.215Z,99460.23
2019-02-22T15:14:31.352Z,99469.28
2019-02-22T15:17:55.760Z,99469.30
2019-02-22T15:21:02.673Z,99474.53
2019-02-22T15:24:09.957Z,99468.95
2019-02-22T15:27:16.845Z,99466.56
2019-02-22T15:30:23.615Z,99469.62
2019-02-22T15:33:31.241Z,99476.11
2019-02-22T15:36:37.879Z,99480.33
2019-02-22T15:39:44.767Z,99479.41
2019-02-22T15:42:51.943Z,99479.98
2019-02-22T15:46:11.486Z,99483.14
2019-02-22T15:49:08.626Z,99488.82
2019-02-22T15:52:15.004Z,99497.42
2019-02-22T15:55:22.089Z,99510.70
2019-02-22T15:58:30.345Z,99510.12
2019-02-22T16:01:39.210Z,99518.91
2019-02-22T16:04:56.326Z,99517.08
2019-02-22T16:08:08.642Z,99518.03
2019-02-22T16:11:20.509Z,99518.95
2019-02-22T16:14:38.052Z,99526.02
2019-02-22T16:17:47.626Z,99521.23
2019-02-22T16:20:56.816Z,99527.02
2019-02-22T16:24:03.312Z,99526.72
2019-02-22T16:27:12.193Z,99523.59
2019-02-22T16:30:22.773Z,99521.02
2019-02-22T16:33:29.944Z,99521.36
2019-02-22T16:36:38.384Z,99515.86
2019-02-22T16:39:45.314Z,99517.50
2019-02-22T16:42:52.691Z,99520.18
2019-02-22T16:46:01.584Z,99535.50
2019-02-22T16:49:08.639Z,99549.23
2019-02-22T16:52:15.302Z,99556.50
2019-02-22T16:55:21.682Z,99549.09
2019-02-22T16:58:28.384Z,99550.45
2019-02-22T17:01:35.896Z,99571.16
2019-02-22T17:04:42.547Z,99572.57
2019-02-22T17:07:49.067Z,99578.57
2019-02-22T17:10:55.959Z,99581.27
2019-02-22T17:14:03.039Z,99578.66
2019-02-22T17:17:11.301Z,99577.77
2019-02-22T17:20:18.131Z,99578.72
2019-02-22T17:23:25.074Z,99569.91
2019-02-22T17:26:31.960Z,99570.81
2019-02-22T17:29:39.220Z,99569.10
2019-02-22T17:32:45.684Z,99573.13
2019-02-22T17:35:53.963Z,99577.50
2019-02-22T17:39:00.779Z,99583.80
2019-02-22T17:42:08.992Z,99593.41
2019-02-22T17:45:15.530Z,99600.75
2019-02-22T17:48:22.613Z,99604.54
2019-02-22T17:51:29.860Z,99611.08
2019-02-22T17:54:37.051Z,99609.06
2019-02-22T17:57:44.167Z,99614.25
2019-02-22T18:00:51.140Z,99622.23
2019-02-22T18:03:57.919Z,99631.34
2019-02-22T18:07:13.340Z,99634.01
2019-02-22T18:10:20.229Z,99644.98
2019-02-22T18:13:27.030Z,99649.34
2019-02-22T18:16:33.585Z,99647.27
2019-02-22T18:19:45.300Z,99644.79
2019-02-22T18:22:52.094Z,99641.59
2019-02-22T18:25:58.453Z,99647.40
2019-02-22T18:29:05.246Z,99649.53
2019-02-22T18:32:11.874Z,99656.47
2019-02-22T18:35:18.981Z,99655.91
2019-02-22T18:38:25.337Z,99650.55
2019-02-22T18:41:32.967Z,99651.91
2019-02-22T18:44:40.039Z,99648.43
2019-02-22T18:47:46.743Z,99639.36
2019-02-22T18:50:53.825Z,99650.15
2019-02-22T18:54:00.845Z,99658.48
2019-02-22T18:57:11.119Z,99654.64
2019-02-22T19:00:19.943Z,99657.17
2019-02-22T19:03:27.189Z,99658.97
2019-02-22T19:06:34.707Z,99671.19
2019-02-22T19:09:41.340Z,99674.30
2019-02-22T19:12:54.566Z,99670.33
2019-02-22T19:16:01.745Z,99674.81
2019-02-22T19:19:08.622Z,99669.21
2019-02-22T19:22:15.368Z,99678.37
2019-02-22T19:25:22.254Z,99679.19
2019-02-22T19:28:29.547Z,99683.33
2019-02-22T19:31:36.779Z,99681.64
2019-02-22T19:34:44.336Z,99682.09
2019-02-22T19:37:51.878Z,99689.94
2019-02-22T19:41:02.104Z,99690.77
2019-02-22T19:44:09.067Z,99696.02
2019-02-22T19:47:16.422Z,99706.06
2019-02-22T19:50:23.085Z,99702.17
2019-02-22T19:53:29.911Z,99690.80
2019-02-22T19:56:37.226Z,99686.39
2019-02-22T19:59:43.871Z,99683.84
2019-02-22T20:02:50.371Z,99681.27
2019-02-22T20:05:57.178Z,99686.02
2019-02-22T20:09:04.245Z,99696.98
2019-02-22T20:12:12.736Z,99703.03
2019-02-22T20:15:19.331Z,99704.03
2019-02-22T20:18:26.853Z,99709.26
2019-02-22T20:21:35.149Z,99700.59
2019-02-22T20:24:42.024Z,99707.69
2019-02-22T20:27:48.626Z,99705.49
2019-02-22T20:30:55.274Z,99712.53
2019-02-22T20:34:02.054Z,99712.05
2019-02-22T20:37:08.815Z,99719.06
2019-02-22T20:40:15.670Z,99729.03
2019-02-22T20:43:23.117Z,99733.03
2019-02-22T20:46:33.509Z,99735.23
2019-02-22T20:49:45.822Z,99740.41
2019-02-22T20:52:53.935Z,99744.82
2019-02-22T20:56:01.670Z,99754.45
2019-02-22T20:59:08.476Z,99750.54
2019-02-22T21:02:19.542Z,99745.77
2019-02-22T21:05:27.523Z,99757.95
2019-02-22T21:08:38.101Z,99773.23
2019-02-22T21:11:45.094Z,99779.32
2019-02-22T21:14:52.948Z,99778.43
2019-02-22T21:17:59.745Z,99767.63
2019-02-22T21:21:06.845Z,99769.39
2019-02-22T21:24:13.359Z,99773.84
2019-02-22T21:27:20.258Z,99773.83
2019-02-22T21:30:27.080Z,99775.14
2019-02-22T21:33:35.134Z,99774.23
2019-02-22T21:36:42.217Z,99777.28
2019-02-22T21:39:49.843Z,99783.41
2019-02-22T21:42:56.392Z,99780.87
2019-02-22T21:46:03.196Z,99770.88
2019-02-22T21:49:10.068Z,99767.38
2019-02-22T21:52:17.318Z,99775.66
2019-02-22T21:55:24.146Z,99777.48
2019-02-22T21:58:31.308Z,99787.03
2019-02-22T22:01:38.728Z,99788.89
2019-02-22T22:04:45.481Z,99794.94
2019-02-22T22:07:52.183Z,99793.25
2019-02-22T22:10:59.283Z,99790.16
2019-02-22T22:14:06.244Z,99781.86
2019-02-22T22:17:12.996Z,99791.00
2019-02-22T22:20:19.363Z,99780.99
2019-02-22T22:23:26.285Z,99786.71
2019-02-22T22:26:36.311Z,99791.05
2019-02-22T22:29:42.890Z,99784.06
2019-02-22T22:32:49.361Z,99791.92
2019-02-22T22:35:55.946Z,99790.23
2019-02-22T22:39:02.643Z,99794.17
2019-02-22T22:42:10.450Z,99808.90
2019-02-22T22:45:17.253Z,99805.08
2019-02-22T22:48:24.265Z,99801.15
2019-02-22T22:51:31.402Z,99796.35
2019-02-22T22:54:38.206Z,99801.58
2019-02-22T22:57:45.205Z,99807.69
2019-02-22T23:01:18.267Z,99810.87
2019-02-22T23:04:25.108Z,99813.46
2019-02-22T23:07:31.856Z,99815.14
2019-02-22T23:10:38.607Z,99821.24
2019-02-22T23:13:45.295Z,99815.63
2019-02-22T23:16:52.657Z,99818.27
2019-02-22T23:20:00.102Z,99812.63
2019-02-22T23:23:06.882Z,99808.26
2019-02-22T23:26:13.444Z,99801.77
2019-02-22T23:29:21.220Z,99803.97
2019-02-22T23:32:27.842Z,99821.34
2019-02-22T23:35:34.643Z,99811.37
2019-02-22T23:38:41.035Z,99830.46
2019-02-22T23:41:47.760Z,99825.27
2019-02-22T23:44:54.879Z,99819.19
2019-02-22T23:48:01.511Z,99824.39
2019-02-22T23:51:08.344Z,99819.19
2019-02-22T23:54:14.941Z,99803.97
2019-02-22T23:57:21.346Z,99804.44
